Tyrone, Oklahoma
Current Conditions -  °F | °C
As of 5:35 AM on Wednesday 26 Nov 2014 (Local Time) from KLBL Reporting Station
Clear Clear  
Wind Chill: 23°   Ceiling: Unl
Heat Index: 32°   Visibility: 10mi
Dew Point: 27°   Wind: 12mph
Humidity: 80%   Direction: 300°WNW
Pressure: 30.16"   Gusts: NA
Location:  36.95°N, 101.07°W
Report Text: KLBL 261135Z AUTO 30010KT 10SM CLR 00/M03 A3016 RMK AO1
Loading
Personal Weather Stations






























Interactive Weather Map New forecast layout! Learn more

10-Day Weather Forecast

Advertisements
Track Severe Weather on mobile